Athens, Missouri
Current Conditions -  °F | °C
As of 10:15 AM on Saturday 20 Dec 2014 (Local Time) from KEOK Reporting Station
Haze Haze  
Wind Chill: 29°   Ceiling: 900
Heat Index: 34°   Visibility: 5mi
Dew Point: 30°   Wind: 6mph
Humidity: 87%   Direction: 150°SSE
Pressure: 30.24"   Gusts: NA
Location:  40.4976°N, 91.6726°W
Report Text: KEOK 201615Z AUTO 15005KT 5SM BR OVC009 01/M01 A3024 RMK AO2
Loading
Personal Weather Stations






























Interactive Weather Map New forecast layout! Learn more

10-Day Weather Forecast

Advertisements
Track Severe Weather on mobile